Main page
METAR-TAF:

METAR-TAF

Airports :

Grayling Army Airfield

Grayling, Michigan, United States

latitude: 44-40-49N, longitude: 084-43-44W, elevation: 353 m

Current weather observation

The report was made 7 hours and 39 minutes ago, at 12:55 UTC
Wind 9 kt from the South/Southwest
Temperature 25°C
Humidity 74%
Pressure 1013 hPa
Visibility: 16.1 km
Clear sky

METAR: KGOV 171255Z AUTO 21009KT 10SM CLR 25/20 A2992 RMK AO2 SLP131 T02470197 $

Time: 16:34 (20:34 UTC)


TAF: missing

Weather observations and forecasts of more than 4000 airports (METAR and TAF reports).

The available stations are represented by yellow and red dots on the map.

Hover mouse over dot to see the name of the station.

Then click to see weather observations and forecasts.

To change the map : click on the green buttons with a black cross to zoom in, on the green button with a dash to zoom out, or on the green arrows for adjacent maps.


METAR-TAF: